createdAt,value
2019-03-11T00:01:28.554Z,84.70
2019-03-11T00:06:28.183Z,84.50
2019-03-11T00:11:27.859Z,84.40
2019-03-11T00:16:27.565Z,84.80
2019-03-11T00:21:27.589Z,84.40
2019-03-11T00:26:27.662Z,83.70
2019-03-11T00:31:27.375Z,83.00
2019-03-11T00:36:27.322Z,84.20
2019-03-11T00:41:26.986Z,84.40
2019-03-11T00:46:26.645Z,84.30
2019-03-11T00:51:26.283Z,84.60
2019-03-11T00:56:25.898Z,83.80
2019-03-11T01:01:25.521Z,84.40
2019-03-11T01:06:25.267Z,84.00
2019-03-11T01:11:24.908Z,83.70
2019-03-11T01:16:24.530Z,83.80
2019-03-11T01:21:24.182Z,83.90
2019-03-11T01:26:23.822Z,83.80
2019-03-11T01:31:23.698Z,83.70
2019-03-11T01:36:23.406Z,83.70
2019-03-11T01:41:23.055Z,83.20
2019-03-11T01:46:22.858Z,83.20
2019-03-11T01:51:22.843Z,83.10
2019-03-11T01:56:22.474Z,83.20
2019-03-11T02:01:22.182Z,83.00
2019-03-11T02:06:22.042Z,82.60
2019-03-11T02:11:21.943Z,82.40
2019-03-11T02:16:21.642Z,83.30
2019-03-11T02:21:21.282Z,83.00
2019-03-11T02:26:20.911Z,82.80
2019-03-11T02:31:20.597Z,82.90
2019-03-11T02:36:20.515Z,82.90
2019-03-11T02:41:20.514Z,82.60
2019-03-11T02:46:20.233Z,82.40
2019-03-11T02:51:20.117Z,82.70
2019-03-11T02:56:19.777Z,82.10
2019-03-11T03:01:37.310Z,82.00
2019-03-11T03:06:38.014Z,82.40
2019-03-11T03:11:37.651Z,82.40
2019-03-11T03:16:37.307Z,82.20
2019-03-11T03:21:37.236Z,82.70
2019-03-11T03:26:36.885Z,82.30
2019-03-11T03:31:36.511Z,83.50
2019-03-11T03:36:36.139Z,83.10
2019-03-11T03:41:36.195Z,83.30
2019-03-11T03:46:35.906Z,82.70
2019-03-11T03:51:35.523Z,83.80
2019-03-11T03:56:35.146Z,83.80
2019-03-11T04:01:34.803Z,84.40
2019-03-11T04:06:34.572Z,84.50
2019-03-11T04:11:34.800Z,83.70
2019-03-11T04:16:35.487Z,84.50
2019-03-11T04:21:35.234Z,84.80
2019-03-11T04:26:34.945Z,84.40
2019-03-11T04:31:34.594Z,85.10
2019-03-11T04:36:34.231Z,85.00
2019-03-11T04:41:34.256Z,85.40
2019-03-11T04:46:33.987Z,85.30
2019-03-11T04:51:33.636Z,85.00
2019-03-11T04:56:33.282Z,85.40
2019-03-11T05:01:32.895Z,85.40
2019-03-11T05:06:32.915Z,85.60
2019-03-11T05:11:32.550Z,85.20
2019-03-11T05:16:44.438Z,85.20
2019-03-11T05:21:44.087Z,85.30
2019-03-11T05:26:43.706Z,84.50
2019-03-11T05:31:43.338Z,85.20
2019-03-11T05:36:43.942Z,85.70
2019-03-11T05:41:43.599Z,85.80
2019-03-11T05:46:43.246Z,85.50
2019-03-11T05:51:43.233Z,85.90
2019-03-11T05:56:43.306Z,85.50
2019-03-11T06:01:43.202Z,85.90
2019-03-11T06:06:43.447Z,86.10
2019-03-11T06:11:43.439Z,85.40
2019-03-11T06:16:43.154Z,85.80
2019-03-11T06:21:45.282Z,86.10
2019-03-11T06:26:44.923Z,86.10
2019-03-11T06:31:44.946Z,86.00
2019-03-11T06:36:44.942Z,86.10
2019-03-11T06:41:45.219Z,85.70
2019-03-11T06:46:46.072Z,85.60
2019-03-11T06:51:46.211Z,86.00
2019-03-11T06:56:46.146Z,86.00
2019-03-11T07:01:45.907Z,86.90
2019-03-11T07:06:45.613Z,86.70
2019-03-11T07:11:45.331Z,86.60
2019-03-11T07:16:44.959Z,86.40
2019-03-11T07:21:44.673Z,86.80
2019-03-11T07:26:44.313Z,86.40
2019-03-11T07:31:44.539Z,87.00
2019-03-11T07:36:44.273Z,87.30
2019-03-11T07:41:44.023Z,87.30
2019-03-11T07:46:45.556Z,87.50
2019-03-11T07:51:44.975Z,87.50
2019-03-11T07:56:44.642Z,87.30
2019-03-11T08:01:44.358Z,87.10
2019-03-11T08:06:44.231Z,87.30
2019-03-11T08:11:43.932Z,87.60
2019-03-11T08:16:43.571Z,88.00
2019-03-11T08:21:43.368Z,87.70
2019-03-11T08:26:43.018Z,87.90
2019-03-11T08:31:42.650Z,87.50
2019-03-11T08:36:43.070Z,88.30
2019-03-11T08:41:42.771Z,87.30
2019-03-11T08:46:44.518Z,87.30
2019-03-11T08:51:44.142Z,87.30
2019-03-11T08:56:44.198Z,87.10
2019-03-11T09:01:45.302Z,86.80
2019-03-11T09:06:56.950Z,87.30
2019-03-11T09:12:08.843Z,86.80
2019-03-11T09:17:08.753Z,87.00
2019-03-11T09:22:09.071Z,87.30
2019-03-11T09:27:08.774Z,86.80
2019-03-11T09:32:08.706Z,86.70
2019-03-11T09:37:08.363Z,85.60
2019-03-11T09:42:08.019Z,86.40
2019-03-11T09:47:07.666Z,86.30
2019-03-11T09:52:07.389Z,86.60
2019-03-11T09:57:07.115Z,86.80
2019-03-11T10:02:07.903Z,86.20
2019-03-11T10:07:08.034Z,86.00
2019-03-11T10:12:07.659Z,86.00
2019-03-11T10:17:07.462Z,85.90
2019-03-11T10:22:07.186Z,85.70
2019-03-11T10:27:06.902Z,85.50
2019-03-11T10:32:07.523Z,85.10
2019-03-11T10:37:07.159Z,84.80
2019-03-11T10:42:06.842Z,84.40
2019-03-11T10:47:06.575Z,85.00
2019-03-11T10:52:07.387Z,84.70
2019-03-11T10:57:07.345Z,84.30
2019-03-11T11:02:07.225Z,83.90
2019-03-11T11:07:06.926Z,83.80
2019-03-11T11:12:06.636Z,83.80
2019-03-11T11:17:06.687Z,84.00
2019-03-11T11:22:06.832Z,83.20
2019-03-11T11:27:06.860Z,83.10
2019-03-11T11:32:06.498Z,82.90
2019-03-11T11:37:06.162Z,83.00
2019-03-11T11:42:05.804Z,82.90
2019-03-11T11:47:05.682Z,83.00
2019-03-11T11:52:06.383Z,82.60
2019-03-11T11:57:06.030Z,83.00
2019-03-11T12:02:06.079Z,82.10
2019-03-11T12:07:05.902Z,82.00
2019-03-11T12:12:06.236Z,81.50
2019-03-11T12:17:06.086Z,81.90
2019-03-11T12:22:05.886Z,82.70
2019-03-11T12:27:05.767Z,82.80
2019-03-11T12:32:05.783Z,82.60
2019-03-11T12:37:05.582Z,81.30
2019-03-11T12:42:06.355Z,81.10
2019-03-11T12:47:06.046Z,79.90
2019-03-11T12:52:05.791Z,81.00
2019-03-11T12:57:05.783Z,80.80
2019-03-11T13:02:05.486Z,80.20
2019-03-11T13:07:05.214Z,80.50
2019-03-11T13:12:05.118Z,80.40
2019-03-11T13:17:04.833Z,80.20
2019-03-11T13:22:04.552Z,79.70
2019-03-11T13:27:04.214Z,80.00
2019-03-11T13:32:03.930Z,79.70
2019-03-11T13:37:03.980Z,79.50
2019-03-11T13:42:03.762Z,79.50
2019-03-11T13:47:03.679Z,79.60
2019-03-11T13:52:03.314Z,79.30
2019-03-11T13:57:02.970Z,79.10
2019-03-11T14:02:02.599Z,78.90
2019-03-11T14:07:02.651Z,78.30
2019-03-11T14:12:02.358Z,77.00
2019-03-11T14:17:02.085Z,77.20
2019-03-11T14:22:02.074Z,76.00
2019-03-11T14:27:01.802Z,76.10
2019-03-11T14:32:01.459Z,76.40
2019-03-11T14:37:01.118Z,75.60
2019-03-11T14:42:00.907Z,75.90
2019-03-11T14:47:00.567Z,75.90
2019-03-11T14:52:00.310Z,75.80
2019-03-11T14:56:59.964Z,75.90
2019-03-11T15:02:00.676Z,75.90
2019-03-11T15:07:00.399Z,75.20
2019-03-11T15:12:00.142Z,75.60
2019-03-11T15:16:59.836Z,74.90
2019-03-11T15:21:59.624Z,75.00
2019-03-11T15:26:59.468Z,75.20
2019-03-11T15:32:00.074Z,75.40
2019-03-11T15:36:59.871Z,75.00
2019-03-11T15:42:00.243Z,75.70
2019-03-11T15:46:59.963Z,76.10
2019-03-11T15:51:59.710Z,76.20
2019-03-11T15:56:59.635Z,76.70
2019-03-11T16:01:59.362Z,76.70
2019-03-11T16:06:59.018Z,76.60
2019-03-11T16:11:59.671Z,76.60
2019-03-11T16:16:59.403Z,76.70
2019-03-11T16:21:59.193Z,76.90
2019-03-11T16:26:58.905Z,77.00
2019-03-11T16:31:58.650Z,76.90
2019-03-11T16:36:58.679Z,77.30
2019-03-11T16:41:58.646Z,77.20
2019-03-11T16:46:58.288Z,77.00
2019-03-11T16:51:58.894Z,77.00
2019-03-11T16:56:58.603Z,77.20
2019-03-11T17:01:58.244Z,76.80
2019-03-11T17:06:57.913Z,76.70
2019-03-11T17:11:57.555Z,77.80
2019-03-11T17:16:57.204Z,78.40
2019-03-11T17:21:56.851Z,78.20
2019-03-11T17:26:56.898Z,77.90
2019-03-11T17:31:56.842Z,77.90
2019-03-11T17:36:58.666Z,77.10
2019-03-11T17:41:58.313Z,78.20
2019-03-11T17:46:58.036Z,78.80
2019-03-11T17:51:58.491Z,78.10
2019-03-11T17:56:58.444Z,78.50
2019-03-11T18:01:58.214Z,78.90
2019-03-11T18:06:58.951Z,79.00
2019-03-11T18:11:59.692Z,79.20
2019-03-11T18:16:59.523Z,79.20
2019-03-11T18:21:59.172Z,80.00
2019-03-11T18:26:58.885Z,80.30
2019-03-11T18:32:02.138Z,79.40
2019-03-11T18:37:01.081Z,79.80
2019-03-11T18:42:02.347Z,79.60
2019-03-11T18:47:02.055Z,79.50
2019-03-11T18:52:01.738Z,79.40
2019-03-11T18:57:01.555Z,79.80
2019-03-11T19:02:01.329Z,79.70
2019-03-11T19:07:01.274Z,80.10
2019-03-11T19:12:02.064Z,80.10
2019-03-11T19:17:01.890Z,80.50
2019-03-11T19:22:01.613Z,80.90
2019-03-11T19:27:01.287Z,81.90
2019-03-11T19:32:01.771Z,80.80
2019-03-11T19:37:01.745Z,80.70
2019-03-11T19:42:01.647Z,80.90
2019-03-11T19:47:01.579Z,81.10
2019-03-11T19:52:01.393Z,81.10
2019-03-11T19:57:01.478Z,80.70
2019-03-11T20:02:01.273Z,80.70
2019-03-11T20:07:01.289Z,80.80
2019-03-11T20:12:01.000Z,80.70
2019-03-11T20:17:00.773Z,79.90
2019-03-11T20:22:00.477Z,80.90
2019-03-11T20:27:00.286Z,81.20
2019-03-11T20:32:00.461Z,81.60
2019-03-11T20:37:00.498Z,81.40
2019-03-11T20:42:00.128Z,82.10
2019-03-11T20:46:59.889Z,81.30
2019-03-11T20:51:59.675Z,81.80
2019-03-11T20:57:01.035Z,82.10
2019-03-11T21:02:00.916Z,79.20
2019-03-11T21:07:01.728Z,80.70
2019-03-11T21:12:01.449Z,80.70
2019-03-11T21:17:01.143Z,81.00
2019-03-11T21:22:00.838Z,81.30
2019-03-11T21:27:00.560Z,82.10
2019-03-11T21:32:00.495Z,81.30
2019-03-11T21:37:00.569Z,81.40
2019-03-11T21:42:00.310Z,82.00
2019-03-11T21:47:00.060Z,82.00
2019-03-11T21:52:12.058Z,82.10
2019-03-11T21:57:11.756Z,82.50
2019-03-11T22:02:11.659Z,82.90
2019-03-11T22:07:11.403Z,81.90
2019-03-11T22:12:11.036Z,81.90
2019-03-11T22:17:10.674Z,81.80
2019-03-11T22:22:10.289Z,81.90
2019-03-11T22:27:09.906Z,82.20
2019-03-11T22:32:09.563Z,82.00
2019-03-11T22:37:09.614Z,82.20
2019-03-11T22:42:09.308Z,82.20
2019-03-11T22:47:09.246Z,82.10
2019-03-11T22:52:08.895Z,81.70
2019-03-11T22:57:08.550Z,82.00
2019-03-11T23:02:11.730Z,82.10
2019-03-11T23:07:11.723Z,82.50
2019-03-11T23:12:11.361Z,82.30
2019-03-11T23:17:11.395Z,82.30
2019-03-11T23:22:11.358Z,82.70
2019-03-11T23:27:11.570Z,82.60
2019-03-11T23:32:11.279Z,82.60
2019-03-11T23:37:11.082Z,82.30
2019-03-11T23:42:10.751Z,82.60
2019-03-11T23:47:10.486Z,83.60
2019-03-11T23:52:10.094Z,82.60
2019-03-11T23:57:09.838Z,83.10
